sensor_id;sensor_type;location;lat;lon;timestamp;temperature;humidity
37232;DHT22;23125;48.156;15.954;2023-07-16T00:01:47;28.70;53.20
37232;DHT22;23125;48.156;15.954;2023-07-16T00:04:13;28.70;53.30
37232;DHT22;23125;48.156;15.954;2023-07-16T00:06:39;28.70;53.30
37232;DHT22;23125;48.156;15.954;2023-07-16T00:09:05;28.70;53.30
37232;DHT22;23125;48.156;15.954;2023-07-16T00:11:31;28.70;53.40
37232;DHT22;23125;48.156;15.954;2023-07-16T00:13:56;28.60;53.40
37232;DHT22;23125;48.156;15.954;2023-07-16T00:16:22;28.70;53.40
37232;DHT22;23125;48.156;15.954;2023-07-16T00:18:48;28.60;53.40
37232;DHT22;23125;48.156;15.954;2023-07-16T00:21:14;28.60;53.40
37232;DHT22;23125;48.156;15.954;2023-07-16T00:23:39;28.60;53.50
37232;DHT22;23125;48.156;15.954;2023-07-16T00:26:05;28.60;53.50
37232;DHT22;23125;48.156;15.954;2023-07-16T00:28:31;28.60;53.60
37232;DHT22;23125;48.156;15.954;2023-07-16T00:30:57;28.60;53.60
37232;DHT22;23125;48.156;15.954;2023-07-16T00:33:23;28.60;53.70
37232;DHT22;23125;48.156;15.954;2023-07-16T00:35:49;28.50;53.60
37232;DHT22;23125;48.156;15.954;2023-07-16T00:38:19;28.50;53.70
37232;DHT22;23125;48.156;15.954;2023-07-16T00:40:48;28.50;53.80
37232;DHT22;23125;48.156;15.954;2023-07-16T00:43:14;28.40;53.80
37232;DHT22;23125;48.156;15.954;2023-07-16T00:45:41;28.40;53.80
37232;DHT22;23125;48.156;15.954;2023-07-16T00:48:07;28.40;53.90
37232;DHT22;23125;48.156;15.954;2023-07-16T00:50:36;28.40;53.90
37232;DHT22;23125;48.156;15.954;2023-07-16T00:53:06;28.40;54.00
37232;DHT22;23125;48.156;15.954;2023-07-16T00:55:33;28.30;53.90
37232;DHT22;23125;48.156;15.954;2023-07-16T00:58:03;28.30;53.90
37232;DHT22;23125;48.156;15.954;2023-07-16T01:00:34;28.30;53.90
37232;DHT22;23125;48.156;15.954;2023-07-16T01:03:02;28.30;53.90
37232;DHT22;23125;48.156;15.954;2023-07-16T01:05:34;28.20;53.90
37232;DHT22;23125;48.156;15.954;2023-07-16T01:08:04;28.20;54.00
37232;DHT22;23125;48.156;15.954;2023-07-16T01:10:33;28.20;54.00
37232;DHT22;23125;48.156;15.954;2023-07-16T01:13:00;28.20;53.90
37232;DHT22;23125;48.156;15.954;2023-07-16T01:15:26;28.20;53.90
37232;DHT22;23125;48.156;15.954;2023-07-16T01:17:52;28.10;54.00
37232;DHT22;23125;48.156;15.954;2023-07-16T01:20:17;28.10;54.10
37232;DHT22;23125;48.156;15.954;2023-07-16T01:25:56;28.10;54.00
37232;DHT22;23125;48.156;15.954;2023-07-16T01:28:53;28.00;53.90
37232;DHT22;23125;48.156;15.954;2023-07-16T01:31:22;27.90;53.90
37232;DHT22;23125;48.156;15.954;2023-07-16T01:33:49;28.00;54.00
37232;DHT22;23125;48.156;15.954;2023-07-16T01:36:17;27.90;54.00
37232;DHT22;23125;48.156;15.954;2023-07-16T01:38:44;27.80;54.10
37232;DHT22;23125;48.156;15.954;2023-07-16T01:41:10;27.80;54.10
37232;DHT22;23125;48.156;15.954;2023-07-16T01:43:36;27.80;54.20
37232;DHT22;23125;48.156;15.954;2023-07-16T01:46:03;27.70;54.20
37232;DHT22;23125;48.156;15.954;2023-07-16T01:48:36;27.70;54.30
37232;DHT22;23125;48.156;15.954;2023-07-16T01:51:03;27.70;54.30
37232;DHT22;23125;48.156;15.954;2023-07-16T01:53:29;27.60;54.40
37232;DHT22;23125;48.156;15.954;2023-07-16T01:55:57;27.60;54.50
37232;DHT22;23125;48.156;15.954;2023-07-16T01:58:23;27.60;54.60
37232;DHT22;23125;48.156;15.954;2023-07-16T02:00:50;27.60;54.50
37232;DHT22;23125;48.156;15.954;2023-07-16T02:03:16;27.50;54.60
37232;DHT22;23125;48.156;15.954;2023-07-16T02:05:41;27.50;54.70
37232;DHT22;23125;48.156;15.954;2023-07-16T02:08:08;27.50;54.80
37232;DHT22;23125;48.156;15.954;2023-07-16T02:10:33;27.50;54.80
37232;DHT22;23125;48.156;15.954;2023-07-16T02:12:59;27.40;54.80
37232;DHT22;23125;48.156;15.954;2023-07-16T02:15:25;27.40;54.80
37232;DHT22;23125;48.156;15.954;2023-07-16T02:17:51;27.40;54.90
37232;DHT22;23125;48.156;15.954;2023-07-16T02:20:17;27.40;55.00
37232;DHT22;23125;48.156;15.954;2023-07-16T02:22:42;27.30;54.90
37232;DHT22;23125;48.156;15.954;2023-07-16T02:25:08;27.30;55.00
37232;DHT22;23125;48.156;15.954;2023-07-16T02:27:34;27.30;55.00
37232;DHT22;23125;48.156;15.954;2023-07-16T02:30:00;27.20;55.10
37232;DHT22;23125;48.156;15.954;2023-07-16T02:32:26;27.20;55.20
37232;DHT22;23125;48.156;15.954;2023-07-16T02:34:52;27.10;55.10
37232;DHT22;23125;48.156;15.954;2023-07-16T02:37:17;27.10;55.20
37232;DHT22;23125;48.156;15.954;2023-07-16T02:39:44;27.10;55.30
37232;DHT22;23125;48.156;15.954;2023-07-16T02:42:12;27.00;55.20
37232;DHT22;23125;48.156;15.954;2023-07-16T02:44:38;27.00;55.30
37232;DHT22;23125;48.156;15.954;2023-07-16T02:47:08;27.00;55.40
37232;DHT22;23125;48.156;15.954;2023-07-16T02:49:34;27.00;55.50
37232;DHT22;23125;48.156;15.954;2023-07-16T02:51:59;26.90;55.40
37232;DHT22;23125;48.156;15.954;2023-07-16T02:54:25;26.90;55.40
37232;DHT22;23125;48.156;15.954;2023-07-16T02:56:51;26.90;55.40
37232;DHT22;23125;48.156;15.954;2023-07-16T02:59:17;26.80;55.50
37232;DHT22;23125;48.156;15.954;2023-07-16T03:01:43;26.80;55.40
37232;DHT22;23125;48.156;15.954;2023-07-16T03:04:09;26.80;55.50
37232;DHT22;23125;48.156;15.954;2023-07-16T03:06:34;26.80;55.60
37232;DHT22;23125;48.156;15.954;2023-07-16T03:09:00;26.70;55.50
37232;DHT22;23125;48.156;15.954;2023-07-16T03:11:26;26.70;55.50
37232;DHT22;23125;48.156;15.954;2023-07-16T03:13:52;26.70;55.50
37232;DHT22;23125;48.156;15.954;2023-07-16T03:16:18;26.60;55.50
37232;DHT22;23125;48.156;15.954;2023-07-16T03:18:44;26.60;55.50
37232;DHT22;23125;48.156;15.954;2023-07-16T03:21:12;26.60;55.50
37232;DHT22;23125;48.156;15.954;2023-07-16T03:23:38;26.60;55.50
37232;DHT22;23125;48.156;15.954;2023-07-16T03:26:04;26.60;55.60
37232;DHT22;23125;48.156;15.954;2023-07-16T03:28:30;26.50;55.50
37232;DHT22;23125;48.156;15.954;2023-07-16T03:30:55;26.50;55.60
37232;DHT22;23125;48.156;15.954;2023-07-16T03:33:21;26.50;55.70
37232;DHT22;23125;48.156;15.954;2023-07-16T03:35:48;26.40;55.60
37232;DHT22;23125;48.156;15.954;2023-07-16T03:38:14;26.40;55.80
37232;DHT22;23125;48.156;15.954;2023-07-16T03:40:46;26.40;55.90
37232;DHT22;23125;48.156;15.954;2023-07-16T03:43:12;26.40;56.00
37232;DHT22;23125;48.156;15.954;2023-07-16T03:45:38;26.30;55.90
37232;DHT22;23125;48.156;15.954;2023-07-16T03:48:04;26.30;56.00
37232;DHT22;23125;48.156;15.954;2023-07-16T03:50:30;26.30;56.10
37232;DHT22;23125;48.156;15.954;2023-07-16T03:52:55;26.20;56.10
37232;DHT22;23125;48.156;15.954;2023-07-16T03:55:21;26.20;56.10
37232;DHT22;23125;48.156;15.954;2023-07-16T03:57:47;26.20;56.00
37232;DHT22;23125;48.156;15.954;2023-07-16T04:00:13;26.20;56.10
37232;DHT22;23125;48.156;15.954;2023-07-16T04:02:39;26.20;56.00
37232;DHT22;23125;48.156;15.954;2023-07-16T04:05:06;26.20;56.10
37232;DHT22;23125;48.156;15.954;2023-07-16T04:07:32;26.20;56.20
37232;DHT22;23125;48.156;15.954;2023-07-16T04:09:57;26.20;56.30
37232;DHT22;23125;48.156;15.954;2023-07-16T04:12:23;26.10;56.20
37232;DHT22;23125;48.156;15.954;2023-07-16T04:14:54;26.10;56.40
37232;DHT22;23125;48.156;15.954;2023-07-16T04:17:20;26.10;56.60
37232;DHT22;23125;48.156;15.954;2023-07-16T04:19:46;26.10;56.60
37232;DHT22;23125;48.156;15.954;2023-07-16T04:22:12;26.10;56.70
37232;DHT22;23125;48.156;15.954;2023-07-16T04:24:38;26.10;56.80
37232;DHT22;23125;48.156;15.954;2023-07-16T04:27:04;26.10;56.90
37232;DHT22;23125;48.156;15.954;2023-07-16T04:29:30;26.10;57.00
37232;DHT22;23125;48.156;15.954;2023-07-16T04:31:55;26.10;57.10
37232;DHT22;23125;48.156;15.954;2023-07-16T04:34:21;26.10;57.20
37232;DHT22;23125;48.156;15.954;2023-07-16T04:36:47;26.10;57.30
37232;DHT22;23125;48.156;15.954;2023-07-16T04:39:13;26.20;57.50
37232;DHT22;23125;48.156;15.954;2023-07-16T04:41:39;26.20;57.50
37232;DHT22;23125;48.156;15.954;2023-07-16T04:44:05;26.20;57.60
37232;DHT22;23125;48.156;15.954;2023-07-16T04:46:31;26.20;57.80
37232;DHT22;23125;48.156;15.954;2023-07-16T04:48:57;26.30;58.10
37232;DHT22;23125;48.156;15.954;2023-07-16T04:51:23;26.30;58.30
37232;DHT22;23125;48.156;15.954;2023-07-16T04:53:49;26.40;58.60
37232;DHT22;23125;48.156;15.954;2023-07-16T04:56:15;26.50;58.80
37232;DHT22;23125;48.156;15.954;2023-07-16T04:58:42;26.70;59.00
37232;DHT22;23125;48.156;15.954;2023-07-16T05:01:09;26.80;58.70
37232;DHT22;23125;48.156;15.954;2023-07-16T05:03:36;26.80;58.20
37232;DHT22;23125;48.156;15.954;2023-07-16T05:06:02;26.90;57.60
37232;DHT22;23125;48.156;15.954;2023-07-16T05:08:28;26.90;57.10
37232;DHT22;23125;48.156;15.954;2023-07-16T05:10:54;26.90;56.90
37232;DHT22;23125;48.156;15.954;2023-07-16T05:13:21;27.00;57.00
37232;DHT22;23125;48.156;15.954;2023-07-16T05:15:47;27.00;57.10
37232;DHT22;23125;48.156;15.954;2023-07-16T05:18:13;27.00;56.40
37232;DHT22;23125;48.156;15.954;2023-07-16T05:20:38;27.10;56.80
37232;DHT22;23125;48.156;15.954;2023-07-16T05:23:04;27.70;58.40
37232;DHT22;23125;48.156;15.954;2023-07-16T05:25:30;28.50;58.40
37232;DHT22;23125;48.156;15.954;2023-07-16T05:27:56;29.20;57.30
37232;DHT22;23125;48.156;15.954;2023-07-16T05:30:22;29.80;55.40
37232;DHT22;23125;48.156;15.954;2023-07-16T05:32:48;30.50;54.40
37232;DHT22;23125;48.156;15.954;2023-07-16T05:35:13;31.10;52.90
37232;DHT22;23125;48.156;15.954;2023-07-16T05:37:39;31.60;51.10
37232;DHT22;23125;48.156;15.954;2023-07-16T05:40:06;32.20;50.40
37232;DHT22;23125;48.156;15.954;2023-07-16T05:42:35;32.60;48.80
37232;DHT22;23125;48.156;15.954;2023-07-16T05:45:01;33.10;48.00
37232;DHT22;23125;48.156;15.954;2023-07-16T05:47:26;33.50;46.40
37232;DHT22;23125;48.156;15.954;2023-07-16T05:49:52;33.40;44.90
37232;DHT22;23125;48.156;15.954;2023-07-16T05:52:18;33.10;43.90
37232;DHT22;23125;48.156;15.954;2023-07-16T05:54:44;33.20;44.40
37232;DHT22;23125;48.156;15.954;2023-07-16T05:57:13;33.30;45.20
37232;DHT22;23125;48.156;15.954;2023-07-16T05:59:39;33.40;43.60
37232;DHT22;23125;48.156;15.954;2023-07-16T06:02:05;33.50;43.50
37232;DHT22;23125;48.156;15.954;2023-07-16T06:04:31;33.70;44.00
37232;DHT22;23125;48.156;15.954;2023-07-16T06:06:57;34.20;43.60
37232;DHT22;23125;48.156;15.954;2023-07-16T06:09:24;34.60;43.00
37232;DHT22;23125;48.156;15.954;2023-07-16T06:11:49;35.00;42.40
37232;DHT22;23125;48.156;15.954;2023-07-16T06:14:16;35.50;41.50
37232;DHT22;23125;48.156;15.954;2023-07-16T06:16:42;36.00;40.90
37232;DHT22;23125;48.156;15.954;2023-07-16T06:19:08;36.30;40.10
37232;DHT22;23125;48.156;15.954;2023-07-16T06:21:34;36.70;39.20
37232;DHT22;23125;48.156;15.954;2023-07-16T06:24:00;37.00;38.70
37232;DHT22;23125;48.156;15.954;2023-07-16T06:26:26;37.40;37.80
37232;DHT22;23125;48.156;15.954;2023-07-16T06:28:52;37.70;37.20
37232;DHT22;23125;48.156;15.954;2023-07-16T06:31:18;37.90;36.80
37232;DHT22;23125;48.156;15.954;2023-07-16T06:33:44;38.20;36.40
37232;DHT22;23125;48.156;15.954;2023-07-16T06:36:13;38.50;36.00
37232;DHT22;23125;48.156;15.954;2023-07-16T06:38:39;38.90;35.80
37232;DHT22;23125;48.156;15.954;2023-07-16T06:41:05;39.10;35.20
37232;DHT22;23125;48.156;15.954;2023-07-16T06:43:30;39.30;34.50
37232;DHT22;23125;48.156;15.954;2023-07-16T06:45:56;39.50;34.10
37232;DHT22;23125;48.156;15.954;2023-07-16T06:48:23;39.70;33.30
37232;DHT22;23125;48.156;15.954;2023-07-16T06:50:51;39.80;33.00
37232;DHT22;23125;48.156;15.954;2023-07-16T06:53:17;40.00;32.60
37232;DHT22;23125;48.156;15.954;2023-07-16T06:55:43;40.20;32.30
37232;DHT22;23125;48.156;15.954;2023-07-16T06:58:10;40.30;32.20
37232;DHT22;23125;48.156;15.954;2023-07-16T07:00:37;40.50;31.90
37232;DHT22;23125;48.156;15.954;2023-07-16T07:03:03;40.80;31.70
37232;DHT22;23125;48.156;15.954;2023-07-16T07:05:28;40.90;30.70
37232;DHT22;23125;48.156;15.954;2023-07-16T07:07:54;40.90;30.50
37232;DHT22;23125;48.156;15.954;2023-07-16T07:10:20;41.10;30.90
37232;DHT22;23125;48.156;15.954;2023-07-16T07:12:46;41.30;30.80
37232;DHT22;23125;48.156;15.954;2023-07-16T07:15:12;41.50;30.70
37232;DHT22;23125;48.156;15.954;2023-07-16T07:17:38;41.70;30.30
37232;DHT22;23125;48.156;15.954;2023-07-16T07:20:05;41.70;30.00
37232;DHT22;23125;48.156;15.954;2023-07-16T07:22:31;41.80;29.80
37232;DHT22;23125;48.156;15.954;2023-07-16T07:24:57;41.70;29.50
37232;DHT22;23125;48.156;15.954;2023-07-16T07:27:23;41.80;29.90
37232;DHT22;23125;48.156;15.954;2023-07-16T07:29:49;41.90;29.90
37232;DHT22;23125;48.156;15.954;2023-07-16T07:32:19;41.90;29.40
37232;DHT22;23125;48.156;15.954;2023-07-16T07:34:46;41.90;29.40
37232;DHT22;23125;48.156;15.954;2023-07-16T07:37:12;42.00;29.60
37232;DHT22;23125;48.156;15.954;2023-07-16T07:39:37;42.00;29.40
37232;DHT22;23125;48.156;15.954;2023-07-16T07:42:04;42.10;29.30
37232;DHT22;23125;48.156;15.954;2023-07-16T07:44:30;42.00;29.20
37232;DHT22;23125;48.156;15.954;2023-07-16T07:46:56;42.10;29.50
37232;DHT22;23125;48.156;15.954;2023-07-16T07:49:22;42.10;29.00
37232;DHT22;23125;48.156;15.954;2023-07-16T07:51:48;42.00;29.10
37232;DHT22;23125;48.156;15.954;2023-07-16T07:54:15;42.00;29.10
37232;DHT22;23125;48.156;15.954;2023-07-16T07:56:41;42.00;29.20
37232;DHT22;23125;48.156;15.954;2023-07-16T07:59:07;41.90;28.90
37232;DHT22;23125;48.156;15.954;2023-07-16T08:01:33;41.90;29.10
37232;DHT22;23125;48.156;15.954;2023-07-16T08:03:59;41.80;29.20
37232;DHT22;23125;48.156;15.954;2023-07-16T08:06:26;41.80;29.30
37232;DHT22;23125;48.156;15.954;2023-07-16T08:08:52;41.80;29.40
37232;DHT22;23125;48.156;15.954;2023-07-16T08:11:17;41.90;29.50
37232;DHT22;23125;48.156;15.954;2023-07-16T08:13:43;41.90;29.30
37232;DHT22;23125;48.156;15.954;2023-07-16T08:16:09;41.90;29.20
37232;DHT22;23125;48.156;15.954;2023-07-16T08:18:35;41.90;29.10
37232;DHT22;23125;48.156;15.954;2023-07-16T08:21:01;41.90;29.10
37232;DHT22;23125;48.156;15.954;2023-07-16T08:23:27;41.90;29.30
37232;DHT22;23125;48.156;15.954;2023-07-16T08:25:53;42.00;29.00
37232;DHT22;23125;48.156;15.954;2023-07-16T08:28:19;41.90;28.90
37232;DHT22;23125;48.156;15.954;2023-07-16T08:30:47;41.90;29.10
37232;DHT22;23125;48.156;15.954;2023-07-16T08:33:14;41.90;29.20
37232;DHT22;23125;48.156;15.954;2023-07-16T08:35:41;42.00;29.40
37232;DHT22;23125;48.156;15.954;2023-07-16T08:38:07;42.10;29.50
37232;DHT22;23125;48.156;15.954;2023-07-16T08:40:38;42.20;29.30
37232;DHT22;23125;48.156;15.954;2023-07-16T08:43:08;42.20;29.10
37232;DHT22;23125;48.156;15.954;2023-07-16T08:45:39;42.30;29.20
37232;DHT22;23125;48.156;15.954;2023-07-16T08:48:07;42.30;29.10
37232;DHT22;23125;48.156;15.954;2023-07-16T08:50:35;42.20;28.90
37232;DHT22;23125;48.156;15.954;2023-07-16T08:53:04;42.10;28.90
37232;DHT22;23125;48.156;15.954;2023-07-16T08:55:31;42.00;29.10
37232;DHT22;23125;48.156;15.954;2023-07-16T08:57:58;41.90;29.20
37232;DHT22;23125;48.156;15.954;2023-07-16T09:00:26;41.80;29.20
37232;DHT22;23125;48.156;15.954;2023-07-16T09:02:52;41.70;29.30
37232;DHT22;23125;48.156;15.954;2023-07-16T09:05:22;41.70;29.50
37232;DHT22;23125;48.156;15.954;2023-07-16T09:07:49;41.60;29.30
37232;DHT22;23125;48.156;15.954;2023-07-16T09:10:15;41.60;29.60
37232;DHT22;23125;48.156;15.954;2023-07-16T09:12:45;41.70;29.50
37232;DHT22;23125;48.156;15.954;2023-07-16T09:15:13;41.70;29.40
37232;DHT22;23125;48.156;15.954;2023-07-16T09:17:42;41.60;29.20
37232;DHT22;23125;48.156;15.954;2023-07-16T09:20:08;41.60;29.40
37232;DHT22;23125;48.156;15.954;2023-07-16T09:22:34;41.50;29.20
37232;DHT22;23125;48.156;15.954;2023-07-16T09:25:01;41.50;29.30
37232;DHT22;23125;48.156;15.954;2023-07-16T09:27:31;41.30;29.20
37232;DHT22;23125;48.156;15.954;2023-07-16T09:29:57;41.30;29.60
37232;DHT22;23125;48.156;15.954;2023-07-16T09:32:36;41.30;29.50
37232;DHT22;23125;48.156;15.954;2023-07-16T09:35:15;41.30;29.60
37232;DHT22;23125;48.156;15.954;2023-07-16T09:37:42;41.30;29.60
37232;DHT22;23125;48.156;15.954;2023-07-16T09:40:10;41.30;29.70
37232;DHT22;23125;48.156;15.954;2023-07-16T09:42:41;41.30;30.00
37232;DHT22;23125;48.156;15.954;2023-07-16T09:45:12;41.40;29.90
37232;DHT22;23125;48.156;15.954;2023-07-16T09:47:38;41.40;29.50
37232;DHT22;23125;48.156;15.954;2023-07-16T09:50:06;41.30;29.80
37232;DHT22;23125;48.156;15.954;2023-07-16T09:52:32;41.30;29.90
37232;DHT22;23125;48.156;15.954;2023-07-16T09:55:02;41.30;30.00
37232;DHT22;23125;48.156;15.954;2023-07-16T09:57:32;41.30;30.00
37232;DHT22;23125;48.156;15.954;2023-07-16T10:00:02;41.40;29.90
37232;DHT22;23125;48.156;15.954;2023-07-16T10:02:34;41.40;29.90
37232;DHT22;23125;48.156;15.954;2023-07-16T10:05:26;41.40;29.80
37232;DHT22;23125;48.156;15.954;2023-07-16T10:07:58;41.30;29.70
37232;DHT22;23125;48.156;15.954;2023-07-16T10:10:47;41.20;29.60
37232;DHT22;23125;48.156;15.954;2023-07-16T10:13:14;41.00;29.60
37232;DHT22;23125;48.156;15.954;2023-07-16T10:15:55;40.80;29.80
37232;DHT22;23125;48.156;15.954;2023-07-16T10:20:51;40.40;30.00
37232;DHT22;23125;48.156;15.954;2023-07-16T10:23:18;40.20;30.00
37232;DHT22;23125;48.156;15.954;2023-07-16T10:26:01;40.00;30.40
37232;DHT22;23125;48.156;15.954;2023-07-16T10:28:27;39.80;30.40
37232;DHT22;23125;48.156;15.954;2023-07-16T10:30:53;39.60;30.70
37232;DHT22;23125;48.156;15.954;2023-07-16T10:33:19;39.40;31.10
37232;DHT22;23125;48.156;15.954;2023-07-16T10:35:46;39.20;31.20
37232;DHT22;23125;48.156;15.954;2023-07-16T10:38:12;39.10;31.60
37232;DHT22;23125;48.156;15.954;2023-07-16T10:40:45;38.90;31.70
37232;DHT22;23125;48.156;15.954;2023-07-16T10:43:12;38.70;31.90
37232;DHT22;23125;48.156;15.954;2023-07-16T10:45:38;38.60;32.00
37232;DHT22;23125;48.156;15.954;2023-07-16T10:48:04;38.50;32.40
37232;DHT22;23125;48.156;15.954;2023-07-16T10:50:34;38.30;32.40
37232;DHT22;23125;48.156;15.954;2023-07-16T10:53:01;38.30;32.80
37232;DHT22;23125;48.156;15.954;2023-07-16T10:55:29;38.20;32.80
37232;DHT22;23125;48.156;15.954;2023-07-16T10:57:56;38.00;33.10
37232;DHT22;23125;48.156;15.954;2023-07-16T11:00:22;37.90;33.20
37232;DHT22;23125;48.156;15.954;2023-07-16T11:02:50;37.80;33.30
37232;DHT22;23125;48.156;15.954;2023-07-16T11:05:17;37.70;33.50
37232;DHT22;23125;48.156;15.954;2023-07-16T11:07:45;37.60;33.60
37232;DHT22;23125;48.156;15.954;2023-07-16T11:10:11;37.50;33.80
37232;DHT22;23125;48.156;15.954;2023-07-16T11:12:37;37.50;34.00
37232;DHT22;23125;48.156;15.954;2023-07-16T11:15:04;37.30;34.00
37232;DHT22;23125;48.156;15.954;2023-07-16T11:17:30;37.30;34.30
37232;DHT22;23125;48.156;15.954;2023-07-16T11:19:59;37.20;34.50
37232;DHT22;23125;48.156;15.954;2023-07-16T11:22:26;37.20;34.60
37232;DHT22;23125;48.156;15.954;2023-07-16T11:24:53;37.20;34.60
37232;DHT22;23125;48.156;15.954;2023-07-16T11:27:21;37.20;34.80
37232;DHT22;23125;48.156;15.954;2023-07-16T11:30:00;37.10;34.60
37232;DHT22;23125;48.156;15.954;2023-07-16T11:32:46;37.00;34.90
37232;DHT22;23125;48.156;15.954;2023-07-16T11:35:19;37.00;34.90
37232;DHT22;23125;48.156;15.954;2023-07-16T11:37:46;37.00;34.90
37232;DHT22;23125;48.156;15.954;2023-07-16T11:40:17;36.90;35.70
37232;DHT22;23125;48.156;15.954;2023-07-16T11:42:44;36.90;34.70
37232;DHT22;23125;48.156;15.954;2023-07-16T11:45:21;36.90;35.00
37232;DHT22;23125;48.156;15.954;2023-07-16T11:47:48;36.80;35.20
37232;DHT22;23125;48.156;15.954;2023-07-16T11:50:15;36.70;35.20
37232;DHT22;23125;48.156;15.954;2023-07-16T11:52:41;36.80;35.40
37232;DHT22;23125;48.156;15.954;2023-07-16T11:55:08;36.70;35.30
37232;DHT22;23125;48.156;15.954;2023-07-16T11:57:34;36.70;35.40
37232;DHT22;23125;48.156;15.954;2023-07-16T12:00:02;36.70;35.40
37232;DHT22;23125;48.156;15.954;2023-07-16T12:02:29;36.70;35.60
37232;DHT22;23125;48.156;15.954;2023-07-16T12:04:55;36.60;36.40
37232;DHT22;23125;48.156;15.954;2023-07-16T12:07:37;36.60;35.60
37232;DHT22;23125;48.156;15.954;2023-07-16T12:10:05;36.60;35.70
37232;DHT22;23125;48.156;15.954;2023-07-16T12:12:32;36.60;35.80
37232;DHT22;23125;48.156;15.954;2023-07-16T12:15:00;36.60;35.80
37232;DHT22;23125;48.156;15.954;2023-07-16T12:17:26;36.50;35.50
37232;DHT22;23125;48.156;15.954;2023-07-16T12:19:51;36.60;35.90
37232;DHT22;23125;48.156;15.954;2023-07-16T12:22:18;36.60;35.80
37232;DHT22;23125;48.156;15.954;2023-07-16T12:24:44;36.50;35.70
37232;DHT22;23125;48.156;15.954;2023-07-16T12:27:10;36.50;35.90
37232;DHT22;23125;48.156;15.954;2023-07-16T12:29:36;36.50;35.80
37232;DHT22;23125;48.156;15.954;2023-07-16T12:32:02;36.40;35.70
37232;DHT22;23125;48.156;15.954;2023-07-16T12:34:28;36.40;35.80
37232;DHT22;23125;48.156;15.954;2023-07-16T12:36:54;36.40;35.50
37232;DHT22;23125;48.156;15.954;2023-07-16T12:39:21;36.40;35.70
37232;DHT22;23125;48.156;15.954;2023-07-16T12:41:47;36.40;35.70
37232;DHT22;23125;48.156;15.954;2023-07-16T12:44:13;36.30;35.80
37232;DHT22;23125;48.156;15.954;2023-07-16T12:46:39;36.30;35.80
37232;DHT22;23125;48.156;15.954;2023-07-16T12:49:05;36.30;35.70
37232;DHT22;23125;48.156;15.954;2023-07-16T12:51:30;36.30;35.80
37232;DHT22;23125;48.156;15.954;2023-07-16T12:53:56;36.30;35.60
37232;DHT22;23125;48.156;15.954;2023-07-16T12:56:22;36.20;35.70
37232;DHT22;23125;48.156;15.954;2023-07-16T12:58:48;36.20;35.70
37232;DHT22;23125;48.156;15.954;2023-07-16T13:01:14;36.20;35.80
37232;DHT22;23125;48.156;15.954;2023-07-16T13:03:40;36.20;36.00
37232;DHT22;23125;48.156;15.954;2023-07-16T13:06:06;36.20;36.00
37232;DHT22;23125;48.156;15.954;2023-07-16T13:08:32;36.20;35.90
37232;DHT22;23125;48.156;15.954;2023-07-16T13:10:58;36.20;35.90
37232;DHT22;23125;48.156;15.954;2023-07-16T13:13:24;36.20;35.40
37232;DHT22;23125;48.156;15.954;2023-07-16T13:15:49;36.10;35.50
37232;DHT22;23125;48.156;15.954;2023-07-16T13:18:15;36.10;35.70
37232;DHT22;23125;48.156;15.954;2023-07-16T13:20:42;36.10;35.40
37232;DHT22;23125;48.156;15.954;2023-07-16T13:23:08;36.10;35.40
37232;DHT22;23125;48.156;15.954;2023-07-16T13:25:35;36.10;35.40
37232;DHT22;23125;48.156;15.954;2023-07-16T13:28:03;36.10;35.30
37232;DHT22;23125;48.156;15.954;2023-07-16T13:30:29;36.10;35.10
37232;DHT22;23125;48.156;15.954;2023-07-16T13:32:55;36.10;35.10
37232;DHT22;23125;48.156;15.954;2023-07-16T13:35:22;36.10;35.20
37232;DHT22;23125;48.156;15.954;2023-07-16T13:37:48;36.00;34.80
37232;DHT22;23125;48.156;15.954;2023-07-16T13:40:15;36.00;35.20
37232;DHT22;23125;48.156;15.954;2023-07-16T13:42:42;36.00;35.30
37232;DHT22;23125;48.156;15.954;2023-07-16T13:45:08;36.00;35.20
37232;DHT22;23125;48.156;15.954;2023-07-16T13:47:34;36.00;35.10
37232;DHT22;23125;48.156;15.954;2023-07-16T13:50:00;36.00;35.30
37232;DHT22;23125;48.156;15.954;2023-07-16T13:52:26;36.00;35.20
37232;DHT22;23125;48.156;15.954;2023-07-16T13:54:52;36.00;35.20
37232;DHT22;23125;48.156;15.954;2023-07-16T13:57:18;35.90;34.40
37232;DHT22;23125;48.156;15.954;2023-07-16T13:59:43;35.90;34.50
37232;DHT22;23125;48.156;15.954;2023-07-16T14:02:09;35.80;34.30
37232;DHT22;23125;48.156;15.954;2023-07-16T14:04:35;35.80;34.60
37232;DHT22;23125;48.156;15.954;2023-07-16T14:07:02;35.70;34.40
37232;DHT22;23125;48.156;15.954;2023-07-16T14:09:28;35.70;34.40
37232;DHT22;23125;48.156;15.954;2023-07-16T14:11:54;35.60;34.50
37232;DHT22;23125;48.156;15.954;2023-07-16T14:14:21;35.60;34.40
37232;DHT22;23125;48.156;15.954;2023-07-16T14:16:47;35.60;34.60
37232;DHT22;23125;48.156;15.954;2023-07-16T14:19:13;35.50;34.30
37232;DHT22;23125;48.156;15.954;2023-07-16T14:21:40;35.50;35.10
37232;DHT22;23125;48.156;15.954;2023-07-16T14:24:05;35.40;34.60
37232;DHT22;23125;48.156;15.954;2023-07-16T14:26:32;35.40;35.00
37232;DHT22;23125;48.156;15.954;2023-07-16T14:28:59;35.40;35.20
37232;DHT22;23125;48.156;15.954;2023-07-16T14:31:25;35.50;35.60
37232;DHT22;23125;48.156;15.954;2023-07-16T14:33:51;35.50;35.80
37232;DHT22;23125;48.156;15.954;2023-07-16T14:36:17;35.60;35.70
37232;DHT22;23125;48.156;15.954;2023-07-16T14:38:43;35.60;35.80
37232;DHT22;23125;48.156;15.954;2023-07-16T14:41:09;35.60;35.80
37232;DHT22;23125;48.156;15.954;2023-07-16T14:43:35;35.60;36.20
37232;DHT22;23125;48.156;15.954;2023-07-16T14:46:01;35.60;35.60
37232;DHT22;23125;48.156;15.954;2023-07-16T14:48:28;35.70;35.80
37232;DHT22;23125;48.156;15.954;2023-07-16T14:50:54;35.70;35.90
37232;DHT22;23125;48.156;15.954;2023-07-16T14:53:21;35.70;35.80
37232;DHT22;23125;48.156;15.954;2023-07-16T14:55:50;35.70;35.70
37232;DHT22;23125;48.156;15.954;2023-07-16T14:58:20;35.70;35.90
37232;DHT22;23125;48.156;15.954;2023-07-16T15:00:48;35.70;35.80
37232;DHT22;23125;48.156;15.954;2023-07-16T15:03:14;35.70;35.70
37232;DHT22;23125;48.156;15.954;2023-07-16T15:05:40;35.70;35.60
37232;DHT22;23125;48.156;15.954;2023-07-16T15:08:06;35.70;35.50
37232;DHT22;23125;48.156;15.954;2023-07-16T15:10:32;35.60;34.80
37232;DHT22;23125;48.156;15.954;2023-07-16T15:12:59;35.60;35.30
37232;DHT22;23125;48.156;15.954;2023-07-16T15:15:24;35.60;35.50
37232;DHT22;23125;48.156;15.954;2023-07-16T15:17:51;35.60;35.90
37232;DHT22;23125;48.156;15.954;2023-07-16T15:20:16;35.60;35.70